Latest Weather Observations for Coolangatta

IDN60801

Issued at 4:32 am EST Tuesday 30 May 2017 (issued every 30 minutes, with the page automatically refreshed every 10 minutes)

About weather observations | Map of weather stations | Latest weather observations for NSW | Other Formats
Station Details ID: 040717 Name: COOLANGATTA Lat: -28.17 Lon: 153.51 Height: 4.0 m
Data from the previous 72 hours. | See also: Recent months at Coolangatta
Date/Time
EST
Temp
°C
App
Temp
°C
Dew
Point
°C
Rel
Hum
%
Delta-T
°C
Wind Press
QNH
hPa
Press
MSL
hPa
Rain since
9am
mm
Dir  Spd
km/h
Gust
km/h
Spd
kts
Gust
kts
30/04:30am 15.0 13.8 10.4 74 2.4 S 7 11 4 6 1021.3 1021.3 0.0
30/04:00am 15.8 14.1 9.7 67 3.2 S 9 13 5 7 1021.1 1021.1 0.0
30/03:30am 16.8 14.2 9.5 62 3.8 SSW 13 19 7 10 1020.9 1020.9 0.0
30/03:00am 17.1 15.0 9.8 62 3.8 SSW 11 17 6 9 1021.1 1021.1 0.0
30/02:30am 16.8 14.8 10.2 65 3.5 S 11 15 6 8 1020.9 1020.9 0.0
30/02:00am 16.5 14.5 8.5 59 4.1 S 9 11 5 6 1021.2 1021.2 0.0
30/01:30am 17.2 14.2 7.8 54 4.8 SSW 13 17 7 9 1021.2 1021.2 0.0
30/01:00am 17.1 14.0 7.2 52 4.9 SSW 13 17 7 9 1020.9 1020.9 0.0
30/12:30am 16.7 14.3 6.8 52 4.9 SW 9 13 5 7 1021.3 1021.3 0.0
30/12:00am 17.5 13.7 5.8 46 5.7 SSW 15 19 8 10 1020.9 1020.9 0.0
 
Date/Time
EST
Temp
°C
App
Temp
°C
Dew
Point
°C
Rel
Hum
%
Delta-T
°C
Wind Press
QNH
hPa
Press
MSL
hPa
Rain since
9am
mm
Dir  Spd
km/h
Gust
km/h
Spd
kts
Gust
kts
29/11:30pm 17.3 13.2 6.2 48 5.4 SSW 17 24 9 13 1020.6 1020.6 0.0
29/11:00pm 15.6 13.5 8.1 61 3.8 S 9 13 5 7 1020.5 1020.5 0.0
29/10:30pm 14.2 12.4 9.4 73 2.5 SW 9 15 5 8 1020.6 1020.6 0.0
29/10:00pm 12.4 10.8 10.1 86 1.2 SSW 9 13 5 7 1020.5 1020.5 0.0
29/09:30pm 13.5 11.7 10.9 84 1.4 SW 11 15 6 8 1020.4 1020.4 0.0
29/09:00pm 13.1 11.3 11.0 87 1.1 SW 11 13 6 7 1020.6 1020.6 0.0
29/08:30pm 13.9 11.7 10.7 81 1.7 WSW 13 15 7 8 1020.6 1020.6 0.0
29/08:00pm 14.7 12.4 11.7 82 1.6 WSW 15 17 8 9 1020.1 1020.1 0.0
29/07:30pm 15.1 14.3 11.7 80 1.8 S 7 9 4 5 1019.6 1019.6 0.0
29/07:00pm 15.5 14.7 11.1 75 2.3 WSW 6 15 3 8 1019.1 1019.1 0.0
29/06:30pm 16.3 14.2 12.5 78 2.1 WSW 15 19 8 10 1018.7 1018.7 0.0
29/06:00pm 17.1 15.3 12.2 73 2.7 WSW 13 15 7 8 1018.5 1018.5 0.0
29/05:30pm 18.4 17.9 12.8 70 3.1 SW 7 9 4 5 1018.1 1018.1 0.0
29/05:00pm 19.0 19.5 11.6 62 4.1 CALM 0 0 0 0 1017.6 1017.6 0.0
29/04:30pm 23.3 22.6 11.4 47 6.7 NW 6 7 3 4 1017.3 1017.3 0.0
29/04:00pm 24.5 22.6 8.9 37 8.4 WNW 9 13 5 7 1017.0 1017.0 0.0
29/03:30pm 24.9 21.3 8.4 35 8.8 WNW 17 22 9 12 1016.9 1016.9 0.0
29/03:00pm 25.4 22.6 8.4 34 9.1 WNW 13 20 7 11 1016.9 1016.9 0.0
29/02:30pm 25.5 22.5 7.6 32 9.5 W 13 20 7 11 1016.8 1016.8 0.0
29/02:00pm 25.6 22.2 7.7 32 9.5 WNW 15 24 8 13 1016.6 1016.6 0.0
29/01:30pm 25.0 22.1 12.2 44 7.3 N 19 26 10 14 1016.7 1016.7 0.0
29/01:00pm 24.3 22.3 13.8 52 6.1 NNE 17 20 9 11 1017.0 1017.0 0.0
29/12:30pm 23.5 22.1 14.5 57 5.3 N 15 20 8 11 1017.3 1017.3 0.0
29/12:00pm 24.9 22.2 10.4 40 8.0 NW 15 24 8 13 1017.5 1017.5 0.0
29/11:30am 24.5 20.8 9.6 39 8.1 NW 19 24 10 13 1017.8 1017.8 0.0
29/11:00am 24.5 21.4 10.4 41 7.8 WNW 17 26 9 14 1018.2 1018.2 0.0
29/10:30am 23.9 21.6 11.9 47 6.8 WNW 15 20 8 11 1018.5 1018.5 0.0
29/10:00am 23.3 21.5 12.0 49 6.4 WNW 13 19 7 10 1018.7 1018.7 0.0
29/09:30am 23.0 22.6 14.0 57 5.3 WNW 9 13 5 7 1018.7 1018.7 0.0
29/09:00am 21.6 21.3 14.5 64 4.2 NNW 9 13 5 7 1018.6 1018.6 0.2
29/08:30am 18.8 19.6 14.9 78 2.3 W 4 7 2 4 1018.4 1018.4 0.2
29/08:00am 16.8 17.3 14.1 84 1.5 SW 4 7 2 4 1018.2 1018.2 0.2
29/07:30am 15.3 15.3 13.5 89 1.0 WNW 6 7 3 4 1018.0 1018.0 0.2
29/07:00am 14.3 13.0 13.8 97 0.3 WSW 13 15 7 8 1017.8 1017.8 0.2
29/06:30am 13.9 12.9 13.3 96 0.3 WSW 11 13 6 7 1017.6 1017.6 0.2
29/06:00am 14.1 13.4 13.3 95 0.4 SW 9 11 5 6 1017.5 1017.5 0.2
29/05:30am 14.2 13.9 13.4 95 0.4 WSW 7 7 4 4 1017.3 1017.3 0.2
29/05:00am 14.5 14.3 13.5 94 0.6 WNW 7 9 4 5 1017.0 1017.0 0.2
29/04:30am 14.8 15.9 13.5 92 0.7 CALM 0 0 0 0 1016.9 1016.9 0.2
29/04:00am 15.3 14.9 14.2 93 0.6 NW 9 11 5 6 1016.8 1016.8 0.2
29/03:30am 15.6 14.9 14.3 92 0.7 NW 11 13 6 7 1016.9 1016.9 0.2
29/03:00am 16.6 15.6 14.6 88 1.1 NW 13 15 7 8 1017.0 1017.0 0.2
29/02:30am 17.0 16.3 15.3 90 1.0 NNW 13 15 7 8 1017.1 1017.1 0.2
29/02:00am 16.7 16.5 15.7 94 0.6 NNW 11 13 6 7 1017.2 1017.2 0.2
29/01:30am 16.1 15.4 15.5 96 0.3 NW 13 15 7 8 1017.4 1017.4 0.2
29/01:00am 15.3 15.5 14.7 96 0.3 W 7 11 4 6 1017.6 1017.6 0.2
29/12:30am 15.4 15.2 14.6 95 0.5 WNW 9 11 5 6 1017.6 1017.6 0.2
29/12:00am 16.3 17.1 15.8 97 0.3 W 6 9 3 5 1017.6 1017.6 0.2
 
Date/Time
EST
Temp
°C
App
Temp
°C
Dew
Point
°C
Rel
Hum
%
Delta-T
°C
Wind Press
QNH
hPa
Press
MSL
hPa
Rain since
9am
mm
Dir  Spd
km/h
Gust
km/h
Spd
kts
Gust
kts
28/11:30pm 15.7 17.4 15.1 96 0.3 CALM 0 0 0 0 1017.5 1017.5 0.2
28/11:00pm 15.6 15.8 14.8 95 0.5 WSW 7 9 4 5 1017.8 1017.8 0.2
28/10:30pm 15.8 17.3 14.7 93 0.6 CALM 0 0 0 0 1017.7 1017.7 0.2
28/10:00pm 16.0 16.1 14.5 91 0.9 SW 7 9 4 5 1017.9 1017.9 0.2
28/09:30pm 16.6 17.0 14.8 89 1.0 WSW 6 7 3 4 1018.0 1018.0 0.2
28/09:00pm 17.2 17.7 15.0 87 1.3 WSW 6 7 3 4 1017.9 1017.9 0.2
28/08:30pm 18.3 19.0 15.6 84 1.6 WNW 6 7 3 4 1017.8 1017.8 0.2
28/08:00pm 18.4 17.7 15.5 83 1.7 WNW 13 15 7 8 1017.7 1017.7 0.2
28/07:30pm 18.7 18.0 15.4 81 1.9 NW 13 15 7 8 1017.4 1017.4 0.2
28/07:00pm 19.0 18.6 15.1 78 2.3 WNW 11 13 6 7 1016.9 1016.9 0.2
28/06:30pm 20.7 19.6 15.3 71 3.2 NNW 15 20 8 11 1016.6 1016.6 0.2
28/06:00pm 20.9 19.7 16.1 74 2.9 NNW 17 22 9 12 1016.3 1016.3 0.2
28/05:30pm 21.5 19.6 15.8 70 3.4 N 20 26 11 14 1015.9 1015.9 0.2
28/05:00pm 21.7 20.2 15.3 67 3.8 N 17 24 9 13 1015.8 1015.8 0.2
28/04:30pm 22.5 19.5 14.9 62 4.5 N 24 30 13 16 1015.6 1015.6 0.2
28/04:00pm 22.4 19.4 14.8 62 4.5 N 24 30 13 16 1015.6 1015.6 0.2
28/03:30pm 23.4 20.1 14.9 59 5.1 N 26 32 14 17 1015.5 1015.5 0.2
28/03:00pm 23.0 20.7 15.8 64 4.3 N 22 28 12 15 1015.6 1015.6 0.2
28/02:30pm 23.9 22.2 16.2 62 4.7 N 20 26 11 14 1015.6 1015.6 0.2
28/02:00pm 23.1 21.9 14.1 57 5.3 NW 13 19 7 10 1015.9 1015.9 0.2
28/01:30pm 24.0 22.8 14.1 54 5.8 NW 13 20 7 11 1015.9 1015.9 0.2
28/01:00pm 24.0 22.7 13.8 53 6.0 NW 13 24 7 13 1016.2 1016.2 0.2
28/12:30pm 23.6 21.7 14.3 56 5.5 WNW 17 22 9 12 1016.6 1016.6 0.2
28/12:00pm 23.3 20.6 14.6 58 5.1 N 22 30 12 16 1016.9 1016.9 0.2
28/11:30am 23.1 20.4 13.6 55 5.5 NNW 20 26 11 14 1017.2 1017.2 0.2
28/11:00am 23.5 21.3 15.0 59 5.1 NNW 20 28 11 15 1017.8 1017.8 0.2
28/10:30am 22.9 21.0 15.2 62 4.6 NNW 19 26 10 14 1018.2 1018.2 0.0
28/10:00am 22.1 20.1 15.0 64 4.2 NNW 19 22 10 12 1018.4 1018.4 0.0
28/09:30am 21.9 20.8 15.3 66 3.9 NW 15 20 8 11 1018.6 1018.6 0.0
28/09:00am 21.0 19.9 15.3 70 3.4 NW 15 20 8 11 1018.6 1018.6 0.0
28/08:30am 20.2 20.0 15.8 76 2.6 NW 11 15 6 8 1018.7 1018.7 0.0
28/08:00am 18.7 18.9 15.8 83 1.7 NW 9 13 5 7 1018.8 1018.8 0.0
28/07:30am 16.6 17.0 16.4 99 0.1 WNW 9 13 5 7 1018.7 1018.7 0.0
28/07:00am 14.4 13.7 14.2 99 0.1 WSW 11 11 6 6 1018.5 1018.5 0.0
28/06:35am 13.2 12.4 13.0 99 0.1 SW 9 11 5 6 1018.4 1018.4 0.0
28/06:30am 13.4 13.1 13.2 99 0.1 SW 7 9 4 5 1018.4 1018.4 0.0
28/06:15am 13.0 13.9 12.8 99 0.1 CALM 0 0 0 0 1018.3 1018.3 0.0
28/06:00am 12.9 12.6 12.7 99 0.1 WSW 6 9 3 5 1018.3 1018.3 0.0
28/05:45am 12.8 12.3 12.6 99 0.1 WSW 7 9 4 5 1018.2 1018.2 0.0
28/05:30am 12.9 12.4 12.7 99 0.1 SW 7 7 4 4 1018.1 1018.1 0.0
28/05:28am 13.0 12.7 12.8 99 0.1 SW 6 7 3 4 1018.1 1018.1 0.0
28/05:27am 13.4 13.3 13.2 99 0.1 SW 6 7 3 4 1018.1 1018.1 0.0
28/05:09am 13.7 14.4 13.5 99 0.1 SW 2 7 1 4 1018.1 1018.1 0.0
28/05:00am 14.2 15.5 14.0 99 0.1 CALM 0 0 0 0 1018.1 1018.1 0.0
28/04:40am 14.0 13.5 13.8 99 0.1 WSW 9 11 5 6 1018.1 1018.1 0.0
28/04:30am 13.9 13.4 13.7 99 0.1 WSW 9 13 5 7 1018.1 1018.1 0.0
28/04:12am 13.6 13.9 13.4 99 0.1 WSW 4 7 2 4 1018.0 1018.0 0.0
28/04:05am 13.5 13.2 13.3 99 0.1 WSW 7 7 4 4 1017.9 1017.9 0.0
28/04:00am 13.7 13.5 13.5 99 0.1 SW 7 7 4 4 1017.9 1017.9 0.0
28/03:30am 13.9 14.3 13.7 99 0.1 SW 4 6 2 3 1018.0 1018.0 0.0
28/03:15am 14.0 14.1 13.8 99 0.1 SW 6 7 3 4 1018.2 1018.2 0.0
28/03:00am 14.3 15.6 14.1 99 0.1 CALM 0 6 0 3 1018.4 1018.4 0.0
28/02:40am 14.2 13.7 13.9 98 0.2 WSW 9 11 5 6 1018.5 1018.5 0.0
28/02:30am 13.8 13.8 13.5 98 0.2 SW 6 9 3 5 1018.5 1018.5 0.0
28/02:26am 13.8 14.5 13.5 98 0.2 SW 2 7 1 4 1018.6 1018.6 0.0
28/02:23am 14.2 15.4 13.9 98 0.2 CALM 0 0 0 0 1018.6 1018.6 0.0
28/02:04am 14.5 14.7 14.2 98 0.2 SW 6 7 3 4 1018.9 1018.9 0.0
28/02:00am 14.6 14.9 14.4 99 0.1 SW 6 7 3 4 1018.9 1018.9 0.0
28/01:30am 14.7 14.4 14.4 98 0.2 WSW 9 11 5 6 1019.3 1019.3 0.0
28/01:00am 14.7 14.9 14.2 97 0.3 WSW 6 9 3 5 1019.5 1019.5 0.0
28/12:30am 14.9 15.6 14.4 97 0.3 WSW 4 7 2 4 1019.6 1019.6 0.0
28/12:00am 15.0 16.4 14.5 97 0.3 CALM 0 0 0 0 1019.7 1019.7 0.0
 
Date/Time
EST
Temp
°C
App
Temp
°C
Dew
Point
°C
Rel
Hum
%
Delta-T
°C
Wind Press
QNH
hPa
Press
MSL
hPa
Rain since
9am
mm
Dir  Spd
km/h
Gust
km/h
Spd
kts
Gust
kts
27/11:30pm 15.0 15.3 14.4 96 0.3 WSW 6 7 3 4 1019.9 1019.9 0.0
27/11:00pm 15.1 16.2 14.5 96 0.3 S 2 7 1 4 1020.2 1020.2 0.0
27/10:30pm 15.3 16.8 14.7 96 0.3 CALM 0 0 0 0 1020.3 1020.3 0.0
27/10:00pm 15.5 17.0 14.7 95 0.5 CALM 0 0 0 0 1020.4 1020.4 0.0
27/09:30pm 15.6 17.2 14.8 95 0.5 CALM 0 6 0 3 1020.5 1020.5 0.0
27/09:00pm 15.6 16.0 14.8 95 0.5 SW 6 11 3 6 1020.7 1020.7 0.0
27/08:30pm 15.5 16.2 14.5 94 0.6 WSW 4 11 2 6 1020.8 1020.8 0.0
27/08:00pm 16.1 15.3 15.1 94 0.6 WSW 13 17 7 9 1020.7 1020.7 0.0
27/07:30pm 16.1 16.4 15.0 93 0.6 WSW 7 9 4 5 1020.5 1020.5 0.0
27/07:00pm 16.4 17.2 14.9 91 0.9 SW 4 9 2 5 1020.3 1020.3 0.0
27/06:30pm 16.9 16.6 15.4 91 0.9 WSW 11 13 6 7 1020.2 1020.2 0.0
27/06:00pm 17.0 17.0 15.2 89 1.0 WSW 9 9 5 5 1019.8 1019.8 0.0
27/05:30pm 17.5 18.9 15.3 87 1.3 SSW 2 9 1 5 1019.4 1019.4 0.0
27/05:00pm 18.8 19.4 14.3 75 2.6 SE 4 7 2 4 1019.2 1019.2 0.0
27/04:30pm 20.6 20.4 14.7 69 3.5 E 9 13 5 7 1019.2 1019.2 0.0
27/04:00pm 21.3 21.1 14.7 66 3.9 NE 9 13 5 7 1019.0 1019.0 0.0
27/03:30pm 21.7 21.7 15.1 66 3.9 ENE 9 13 5 7 1019.2 1019.2 0.0
27/03:00pm 21.8 20.9 14.9 65 4.1 NE 13 17 7 9 1019.0 1019.0 0.0
27/02:30pm 22.1 21.7 16.1 69 3.6 E 13 19 7 10 1019.0 1019.0 0.0
27/02:00pm 22.3 21.1 16.1 68 3.7 ENE 17 24 9 13 1019.3 1019.3 0.0
27/01:30pm 22.9 22.5 16.2 66 4.1 ESE 13 17 7 9 1019.4 1019.4 0.0
27/01:00pm 22.3 20.8 15.4 65 4.1 E 17 24 9 13 1019.9 1019.9 0.0
27/12:30pm 23.1 21.6 15.4 62 4.6 E 17 22 9 12 1020.2 1020.2 0.0
27/12:00pm 23.2 22.0 15.0 60 4.9 ESE 15 24 8 13 1020.5 1020.5 0.0
27/11:30am 23.1 22.9 14.7 59 5.0 SE 9 13 5 7 1020.8 1020.8 0.0
27/11:00am 22.3 22.2 14.9 63 4.4 SE 9 17 5 9 1021.3 1021.3 0.0
27/10:30am 21.8 20.8 14.7 64 4.2 S 13 19 7 10 1021.6 1021.6 0.0
27/10:00am 21.5 20.6 14.9 66 3.9 SSE 13 17 7 9 1022.1 1022.1 0.0
27/09:30am 21.1 20.5 15.6 71 3.3 S 13 15 7 8 1022.2 1022.2 0.0
27/09:00am 20.3 20.8 15.5 74 2.8 SE 7 13 4 7 1022.0 1022.0 0.0
27/08:30am 18.4 19.2 15.8 85 1.5 S 6 9 3 5 1021.8 1021.8 0.0
27/08:00am 16.7 18.6 15.7 94 0.6 CALM 0 0 0 0 1021.9 1021.9 0.0
27/07:30am 15.3 16.6 15.1 99 0.1 SSW 2 7 1 4 1021.8 1021.8 0.0
27/07:00am 13.6 13.3 13.4 99 0.1 SW 7 11 4 6 1021.6 1021.6 0.0
27/06:30am 13.2 12.8 12.9 98 0.2 SSW 7 9 4 5 1021.3 1021.3 0.0
27/06:10am 13.6 12.6 13.4 99 0.1 S 11 13 6 7 1021.1 1021.1 0.0
27/06:00am 13.5 13.4 13.3 99 0.1 S 6 11 3 6 1021.0 1021.0 0.0
27/05:53am 12.7 13.5 12.4 98 0.2 CALM 0 0 0 0 1020.9 1020.9 0.0
27/05:30am 12.2 12.4 11.9 98 0.2 ESE 2 7 1 4 1020.8 1020.8 0.0
27/05:04am 13.1 12.6 12.8 98 0.2 SW 7 9 4 5 1020.5 1020.5 0.0
27/05:00am 13.2 12.8 12.9 98 0.2 SW 7 9 4 5 1020.4 1020.4 0.0
27/04:45am 13.2 14.1 12.9 98 0.2 CALM 0 0 0 0 1020.5 1020.5 0.0
27/04:34am 13.7 13.7 13.5 99 0.1 SSW 6 9 3 5 1020.4 1020.4 0.0

Other Formats:

Comma delimited format used in spreadsheet applications
http://www.bom.gov.au/fwo/IDN60801/IDN60801.94592.axf

JavaScript Object Notation format (JSON) in row-major order
http://www.bom.gov.au/fwo/IDN60801/IDN60801.94592.json